Time;durP1;ratioP1;P1;durP2;ratioP2;P2;SDS_P1;SDS_P2;PMS_P1;PMS_P2;Temp;Humidity;BMP_temperature;BMP_pressure;BME280_temperature;BME280_humidity;BME280_pressure;Samples;Min_cycle;Max_cycle;Signal;HPM_P1;HPM_P2
2021/06/03 00:02:12;;;;;;;3.97;1.15;;;14.10;65.00;;;;;;5028413;28;20523;-67
2021/06/03 00:04:38;;;;;;;5.15;1.10;;;14.00;65.70;;;;;;5028222;28;20041;-68
2021/06/03 00:07:04;;;;;;;;;;;13.90;65.70;;;;;;5028838;28;20062;-68
2021/06/03 00:09:30;;;;;;;4.07;1.33;;;13.80;66.40;;;;;;5027092;28;20259;-67
2021/06/03 00:11:55;;;;;;;;;;;13.80;66.50;;;;;;5029133;28;20068;-68
2021/06/03 00:14:21;;;;;;;3.42;1.25;;;13.70;67.60;;;;;;5026755;28;20555;-68
2021/06/03 00:16:47;;;;;;;;;;;13.60;67.20;;;;;;5028747;28;20032;-68
2021/06/03 00:19:13;;;;;;;5.93;1.50;;;13.50;67.40;;;;;;5027811;28;19917;-69
2021/06/03 00:21:42;;;;;;;;;;;13.40;67.50;;;;;;5028760;28;20108;-68
2021/06/03 00:24:08;;;;;;;7.25;0.95;;;13.40;68.00;;;;;;5028312;28;19909;-68
2021/06/03 00:26:52;;;;;;;;;;;13.30;68.00;;;;;;5028704;28;20029;-67
2021/06/03 00:29:18;;;;;;;5.93;0.95;;;13.20;68.10;;;;;;5026879;28;19920;-68
2021/06/03 00:31:43;;;;;;;;;;;13.20;67.70;;;;;;5027206;28;20410;-68
2021/06/03 00:34:09;;;;;;;3.45;1.08;;;13.20;68.60;;;;;;5027297;28;20136;-68
2021/06/03 00:36:34;;;;;;;;;;;13.10;68.50;;;;;;5028120;28;20051;-68
2021/06/03 00:39:00;;;;;;;5.95;2.55;;;13.10;68.40;;;;;;5026895;28;19924;-67
2021/06/03 00:41:26;;;;;;;;;;;13.00;68.20;;;;;;5028461;28;20551;-67
2021/06/03 00:43:51;;;;;;;2.60;1.20;;;13.00;68.70;;;;;;5027602;28;19905;-68
2021/06/03 00:46:17;;;;;;;;;;;12.90;68.10;;;;;;5028483;28;20060;-68
2021/06/03 00:48:43;;;;;;;13.70;1.30;;;12.90;68.60;;;;;;5027516;28;19905;-67
2021/06/03 00:51:09;;;;;;;;;;;12.90;69.10;;;;;;5026415;28;20021;-67
2021/06/03 00:53:36;;;;;;;5.70;1.48;;;12.80;69.30;;;;;;5027697;28;20008;-68
2021/06/03 00:56:04;;;;;;;11.07;2.00;;;12.80;69.50;;;;;;5027266;28;20040;-67
2021/06/03 00:58:29;;;;;;;6.07;1.42;;;12.80;68.90;;;;;;5027635;28;20091;-68
2021/06/03 01:00:55;;;;;;;;;;;12.70;68.50;;;;;;5027789;28;20037;-68
2021/06/03 01:03:22;;;;;;;2.75;1.05;;;12.70;68.30;;;;;;5025816;28;19913;-68
2021/06/03 01:05:54;;;;;;;2.67;1.33;;;12.70;67.70;;;;;;5025941;28;20025;-68
2021/06/03 01:08:39;;;;;;;2.70;1.30;;;12.70;68.10;;;;;;5027520;28;20031;-68
2021/06/03 01:11:24;;;;;;;6.75;1.40;;;12.70;68.50;;;;;;5026837;28;20022;-68
2021/06/03 01:13:54;;;;;;;6.32;1.60;;;12.70;68.30;;;;;;5027057;28;20018;-68
2021/06/03 01:16:22;;;;;;;6.97;1.13;;;12.70;67.90;;;;;;5027202;28;20116;-67
2021/06/03 01:18:48;;;;;;;4.20;1.45;;;12.70;68.20;;;;;;5025071;28;20138;-68
2021/06/03 01:21:21;;;;;;;2.58;1.20;;;12.70;69.00;;;;;;5026966;28;20704;-68
2021/06/03 01:24:15;;;;;;;3.22;0.93;;;12.60;68.00;;;;;;5027206;28;20038;-67
2021/06/03 01:26:42;;;;;;;4.03;1.00;;;12.60;68.10;;;;;;5027047;28;20037;-68
2021/06/03 01:29:08;;;;;;;2.40;1.15;;;12.60;69.20;;;;;;5026983;28;20026;-68
2021/06/03 01:31:33;;;;;;;;;;;12.60;68.70;;;;;;5027281;28;20076;-68
2021/06/03 01:33:59;;;;;;;6.68;1.52;;;12.60;68.80;;;;;;5026375;28;19977;-65
2021/06/03 01:36:25;;;;;;;;;;;12.50;68.90;;;;;;5027358;28;20033;-65
2021/06/03 01:38:51;;;;;;;5.78;1.20;;;12.50;69.60;;;;;;5026431;28;20275;-66
2021/06/03 01:41:16;;;;;;;;;;;12.50;70.10;;;;;;5027397;28;20233;-66
2021/06/03 01:43:45;;;;;;;3.45;1.20;;;12.50;69.60;;;;;;5025474;28;19909;-66
2021/06/03 01:46:12;;;;;;;9.60;1.13;;;12.50;69.50;;;;;;5025885;28;20561;-66
2021/06/03 01:48:38;;;;;;;7.45;1.65;;;12.60;69.20;;;;;;5025902;28;20040;-66
2021/06/03 01:51:07;;;;;;;3.67;1.33;;;12.60;70.00;;;;;;5026831;28;20024;-66
2021/06/03 01:53:34;;;;;;;4.05;1.50;;;12.60;69.60;;;;;;5026319;28;20116;-66
2021/06/03 01:56:02;;;;;;;4.82;1.48;;;12.70;69.90;;;;;;5026670;28;20044;-65
2021/06/03 01:58:29;;;;;;;7.07;1.83;;;12.60;69.70;;;;;;5026600;28;20387;-66
2021/06/03 02:00:55;;;;;;;4.60;2.13;;;12.70;69.10;;;;;;5025827;28;20117;-65
2021/06/03 02:03:22;;;;;;;5.10;1.55;;;12.80;69.00;;;;;;5025905;28;20075;-66
2021/06/03 02:05:48;;;;;;;4.70;1.30;;;12.80;69.40;;;;;;5025428;28;20041;-65
2021/06/03 02:08:14;;;;;;;;;;;12.80;69.70;;;;;;5027049;28;20116;-67
2021/06/03 02:10:40;;;;;;;9.40;1.20;;;12.80;68.80;;;;;;5026411;28;19911;-66
2021/06/03 02:13:19;;;;;;;2.28;1.02;;;12.80;69.70;;;;;;5025795;28;20039;-66
2021/06/03 02:15:54;;;;;;;9.57;1.67;;;12.90;70.30;;;;;;5026252;28;20135;-66
2021/06/03 02:18:21;;;;;;;5.45;1.40;;;12.80;68.50;;;;;;5025790;28;20541;-67
2021/06/03 02:20:47;;;;;;;3.65;1.13;;;12.90;69.60;;;;;;5026084;28;20049;-66
2021/06/03 02:23:16;;;;;;;6.45;1.40;;;12.90;69.10;;;;;;5025336;28;20026;-66
2021/06/03 02:25:42;;;;;;;5.85;1.00;;;12.90;70.60;;;;;;5024920;28;20045;-66
2021/06/03 02:28:08;;;;;;;;;;;12.80;69.80;;;;;;5025854;28;20372;-66
2021/06/03 02:30:34;;;;;;;5.57;1.13;;;12.80;69.70;;;;;;5023727;28;20398;-65
2021/06/03 02:33:00;;;;;;;3.97;1.52;;;12.80;70.90;;;;;;5023512;28;20113;-65
2021/06/03 02:35:27;;;;;;;4.80;1.60;;;12.70;70.90;;;;;;5023071;28;20033;-66
2021/06/03 02:37:53;;;;;;;5.25;1.17;;;12.70;71.50;;;;;;5024612;28;20057;-65
2021/06/03 02:40:23;;;;;;;;;;;12.60;71.50;;;;;;5025365;28;20033;-66
2021/06/03 02:42:50;;;;;;;6.72;1.35;;;12.60;72.90;;;;;;5025171;28;20402;-65
2021/06/03 02:45:28;;;;;;;5.05;1.40;;;12.50;71.40;;;;;;5024875;28;20561;-65
2021/06/03 02:47:55;;;;;;;5.38;1.67;;;12.50;72.10;;;;;;5021634;28;20595;-67
2021/06/03 02:50:23;;;;;;;5.57;1.40;;;12.40;72.70;;;;;;5023861;28;20479;-65
2021/06/03 02:52:49;;;;;;;6.55;2.30;;;12.50;73.10;;;;;;5024563;28;20060;-66
2021/06/03 02:55:16;;;;;;;;;;;12.40;72.60;;;;;;5025335;28;20495;-66
2021/06/03 02:57:42;;;;;;;3.80;1.48;;;12.40;72.70;;;;;;5024478;28;19924;-66
2021/06/03 03:00:21;;;;;;;5.13;1.73;;;12.40;72.80;;;;;;5022771;28;20045;-66
2021/06/03 03:02:48;;;;;;;6.88;1.80;;;12.30;73.40;;;;;;5026551;28;20045;-65
2021/06/03 03:05:14;;;;;;;6.13;1.38;;;12.20;73.50;;;;;;5028800;28;20041;-66
2021/06/03 03:07:39;;;;;;;;;;;12.20;74.20;;;;;;5029320;28;20026;-65
2021/06/03 03:10:09;;;;;;;3.95;1.90;;;12.20;74.70;;;;;;5028585;28;20491;-65
2021/06/03 03:12:35;;;;;;;5.72;1.60;;;12.10;74.60;;;;;;5028560;28;20562;-66
2021/06/03 03:15:02;;;;;;;;;;;12.00;74.70;;;;;;5028724;28;20037;-65
2021/06/03 03:17:28;;;;;;;6.00;2.67;;;12.00;75.10;;;;;;5028413;28;20036;-65
2021/06/03 03:19:53;;;;;;;;;;;12.00;75.40;;;;;;5029200;28;20208;-65
2021/06/03 03:22:19;;;;;;;3.40;1.60;;;11.90;75.70;;;;;;5027380;28;20304;-65
2021/06/03 03:24:44;;;;;;;;;;;11.90;75.80;;;;;;5028380;28;20557;-67
2021/06/03 03:27:10;;;;;;;10.60;2.13;;;11.90;77.30;;;;;;5025584;28;19921;-66
2021/06/03 03:29:35;;;;;;;;;;;11.90;77.10;;;;;;5028167;28;20041;-66
2021/06/03 03:32:02;;;;;;;3.67;1.45;;;11.80;77.10;;;;;;5027677;28;20262;-67
2021/06/03 03:34:28;;;;;;;8.70;1.80;;;11.80;76.90;;;;;;5028192;28;20067;-67
2021/06/03 03:36:53;;;;;;;;;;;11.90;77.60;;;;;;5025606;28;20128;-66
2021/06/03 03:39:19;;;;;;;6.20;1.83;;;11.90;77.10;;;;;;5028344;28;19921;-66
2021/06/03 03:41:44;;;;;;;;;;;11.90;77.40;;;;;;5028397;28;20107;-66
2021/06/03 03:44:10;;;;;;;4.35;1.95;;;11.90;77.40;;;;;;5027174;28;19971;-67
2021/06/03 03:46:36;;;;;;;;;;;11.90;77.50;;;;;;5026515;28;20604;-67
2021/06/03 03:49:02;;;;;;;4.32;1.42;;;11.90;78.40;;;;;;5026909;28;20301;-66
2021/06/03 03:51:28;;;;;;;8.07;1.80;;;11.90;77.50;;;;;;5024090;28;20042;-67
2021/06/03 03:53:54;;;;;;;9.45;1.85;;;12.00;77.30;;;;;;5027807;28;20036;-65
2021/06/03 03:56:20;;;;;;;;;;;12.20;76.80;;;;;;5027627;28;20041;-67
2021/06/03 03:58:48;;;;;;;10.55;2.40;;;12.50;75.40;;;;;;5026820;28;19921;-67
2021/06/03 04:01:14;;;;;;;3.55;1.70;;;12.70;74.60;;;;;;5026687;28;20087;-65
2021/06/03 04:03:40;;;;;;;;;;;12.90;73.00;;;;;;5023487;28;20108;-67
2021/06/03 04:06:07;;;;;;;8.13;1.58;;;13.00;72.70;;;;;;5027781;28;19917;-66
2021/06/03 04:08:33;;;;;;;5.95;1.45;;;13.10;72.10;;;;;;5026884;28;20021;-66
2021/06/03 04:10:59;;;;;;;;;;;13.30;70.30;;;;;;5028191;28;20224;-67
2021/06/03 04:13:25;;;;;;;3.10;1.35;;;13.60;69.40;;;;;;5026624;28;19913;-67
2021/06/03 04:15:50;;;;;;;6.93;1.23;;;13.90;68.80;;;;;;5023196;28;20042;-67
2021/06/03 04:18:16;;;;;;;;;;;14.00;68.00;;;;;;5027893;28;20041;-67
2021/06/03 04:20:42;;;;;;;3.67;1.20;;;14.10;66.70;;;;;;5025766;28;20405;-67
2021/06/03 04:23:07;;;;;;;;;;;14.30;66.70;;;;;;5027791;28;20554;-66
2021/06/03 04:25:33;;;;;;;4.05;0.95;;;14.50;66.10;;;;;;5027475;28;19913;-67
2021/06/03 04:28:00;;;;;;;3.08;1.20;;;14.60;65.80;;;;;;5026112;28;20040;-67
2021/06/03 04:30:28;;;;;;;5.35;1.60;;;14.80;65.40;;;;;;5026853;28;20892;-67
2021/06/03 04:32:54;;;;;;;3.53;1.45;;;14.90;65.00;;;;;;5025553;28;20041;-67
2021/06/03 04:35:21;;;;;;;5.85;1.38;;;15.00;64.70;;;;;;5026929;28;20537;-66
2021/06/03 04:37:48;;;;;;;6.88;1.35;;;15.20;64.50;;;;;;5027159;28;20029;-66
2021/06/03 04:40:16;;;;;;;5.45;1.30;;;15.30;63.20;;;;;;5027081;28;20040;-66
2021/06/03 04:42:44;;;;;;;6.50;1.38;;;15.50;62.50;;;;;;5024614;28;20044;-67
2021/06/03 04:45:12;;;;;;;13.40;1.95;;;15.60;62.20;;;;;;5024463;28;20129;-67
2021/06/03 04:47:38;;;;;;;6.90;2.28;;;15.80;61.20;;;;;;5023764;28;20088;-67
2021/06/03 04:50:04;;;;;;;;;;;15.90;60.50;;;;;;5027445;28;20073;-67
2021/06/03 04:52:30;;;;;;;4.13;1.17;;;16.10;59.60;;;;;;5024805;28;19923;-67
2021/06/03 04:54:57;;;;;;;;;;;16.30;59.20;;;;;;5025594;28;20030;-67
2021/06/03 04:57:23;;;;;;;;;;;16.50;60.50;;;;;;5026058;28;19928;-67
2021/06/03 04:59:48;;;;;;;6.05;1.13;;;16.60;59.80;;;;;;5023191;28;20023;-67
2021/06/03 05:02:15;;;;;;;4.55;1.10;;;16.80;59.50;;;;;;5026340;28;20116;-68
2021/06/03 05:04:41;;;;;;;3.78;0.90;;;17.10;58.50;;;;;;5026642;28;20040;-67
2021/06/03 05:07:07;;;;;;;4.30;1.30;;;17.30;57.20;;;;;;5026557;28;20029;-67
2021/06/03 05:09:33;;;;;;;4.00;1.20;;;17.70;56.20;;;;;;5026162;28;20553;-67
2021/06/03 05:11:58;;;;;;;5.80;1.83;;;17.90;55.30;;;;;;5023768;28;20041;-67
2021/06/03 05:14:24;;;;;;;8.48;1.38;;;18.30;55.00;;;;;;5026452;28;20029;-67
2021/06/03 05:16:50;;;;;;;6.57;1.23;;;18.70;53.50;;;;;;5024459;28;20132;-67
2021/06/03 05:19:15;;;;;;;3.08;1.15;;;19.20;51.80;;;;;;5026236;28;20037;-66
2021/06/03 05:21:41;;;;;;;5.03;1.42;;;19.50;50.50;;;;;;5024441;28;20045;-67
2021/06/03 05:24:06;;;;;;;5.00;1.35;;;19.80;49.60;;;;;;5024470;28;20039;-67
2021/06/03 05:26:32;;;;;;;4.28;1.25;;;20.10;48.60;;;;;;5024471;28;20080;-67
2021/06/03 05:28:58;;;;;;;8.93;1.77;;;20.30;48.50;;;;;;5022974;28;20114;-67
2021/06/03 05:31:23;;;;;;;3.45;1.08;;;20.30;48.40;;;;;;5022411;28;20537;-67
2021/06/03 05:33:49;;;;;;;6.55;1.23;;;20.30;48.30;;;;;;5025732;28;20076;-67
2021/06/03 05:36:15;;;;;;;2.60;1.02;;;20.40;48.40;;;;;;5026140;28;20033;-66
2021/06/03 05:38:40;;;;;;;6.85;1.30;;;20.40;48.10;;;;;;5022919;28;20423;-67
2021/06/03 05:41:06;;;;;;;4.88;1.00;;;20.30;48.70;;;;;;5025189;28;20041;-67
2021/06/03 05:43:32;;;;;;;7.25;1.40;;;20.30;49.70;;;;;;5023424;28;20580;-66
2021/06/03 05:45:57;;;;;;;2.42;0.70;;;20.30;49.60;;;;;;5023179;28;20437;-67
2021/06/03 05:48:23;;;;;;;2.90;1.10;;;20.40;49.80;;;;;;5026132;28;21018;-67
2021/06/03 05:50:49;;;;;;;2.45;0.82;;;20.60;49.30;;;;;;5025907;28;20494;-66
2021/06/03 05:53:14;;;;;;;3.75;1.40;;;20.70;48.60;;;;;;5025164;28;20209;-67
2021/06/03 05:55:40;;;;;;;3.97;1.30;;;21.10;48.80;;;;;;5025367;28;20474;-67
2021/06/03 05:58:05;;;;;;;6.95;2.00;;;22.00;46.00;;;;;;5025346;28;20045;-67
2021/06/03 06:00:33;;;;;;;2.58;1.20;;;23.30;38.60;;;;;;5025206;28;20095;-67
2021/06/03 06:03:05;;;;;;;5.88;1.35;;;24.00;35.30;;;;;;5025360;28;20033;-67
2021/06/03 06:08:16;;;;;;;7.35;1.35;;;25.80;32.90;;;;;;5025763;28;20410;-68
2021/06/03 06:10:45;;;;;;;3.78;1.25;;;26.60;31.10;;;;;;5025585;28;20061;-68
2021/06/03 06:13:11;;;;;;;5.85;1.58;;;27.50;30.30;;;;;;5019785;28;20037;-68
2021/06/03 06:15:38;;;;;;;7.30;1.42;;;27.80;29.00;;;;;;5025067;28;20498;-69
2021/06/03 06:18:05;;;;;;;5.53;1.55;;;28.00;27.70;;;;;;5024441;28;20425;-68
2021/06/03 06:20:31;;;;;;;5.72;1.65;;;28.00;27.90;;;;;;5025593;28;20148;-68
2021/06/03 06:22:58;;;;;;;2.20;0.93;;;28.00;27.80;;;;;;5025050;28;20033;-69
2021/06/03 06:25:24;;;;;;;6.47;1.48;;;28.10;27.60;;;;;;5025384;28;20045;-68
2021/06/03 06:27:50;;;;;;;4.32;1.25;;;28.40;26.80;;;;;;5022648;28;20387;-68
2021/06/03 06:30:16;;;;;;;4.68;1.30;;;28.40;27.30;;;;;;5021913;28;20056;-68
2021/06/03 06:32:42;;;;;;;8.05;1.30;;;28.20;26.70;;;;;;5025082;28;20100;-67
2021/06/03 06:35:09;;;;;;;2.22;1.10;;;27.30;27.60;;;;;;5025122;28;20069;-68
2021/06/03 06:37:35;;;;;;;3.63;1.25;;;26.80;27.80;;;;;;5028570;28;20029;-67
2021/06/03 06:40:02;;;;;;;6.85;1.45;;;26.40;28.10;;;;;;5028191;28;20037;-67
2021/06/03 06:42:30;;;;;;;3.53;1.50;;;26.50;28.80;;;;;;5025351;28;20041;-68
2021/06/03 06:44:57;;;;;;;9.38;1.25;;;27.10;27.60;;;;;;5026920;28;20037;-67
2021/06/03 06:47:23;;;;;;;3.15;1.30;;;27.80;26.50;;;;;;5029309;28;20038;-67
2021/06/03 06:49:49;;;;;;;19.55;1.95;;;28.00;26.80;;;;;;5025313;28;20120;-68
2021/06/03 06:52:15;;;;;;;7.00;2.47;;;28.30;26.60;;;;;;5027921;28;20120;-65
2021/06/03 06:54:41;;;;;;;7.10;1.25;;;28.90;25.80;;;;;;5028396;28;20045;-65
2021/06/03 06:57:08;;;;;;;6.50;1.50;;;29.00;25.30;;;;;;5027841;28;20502;-66
2021/06/03 06:59:34;;;;;;;3.08;1.25;;;29.40;25.20;;;;;;5028560;28;20025;-65
2021/06/03 07:02:00;;;;;;;8.13;1.38;;;29.60;24.70;;;;;;5028903;28;20034;-65
2021/06/03 07:04:26;;;;;;;4.93;1.85;;;30.00;24.00;;;;;;5028859;28;20041;-66
2021/06/03 07:06:52;;;;;;;4.50;1.20;;;30.00;24.60;;;;;;5028945;28;20061;-66
2021/06/03 07:09:18;;;;;;;10.73;1.30;;;29.50;24.10;;;;;;5027495;28;20601;-65
2021/06/03 07:11:43;;;;;;;3.72;0.93;;;29.70;24.50;;;;;;5028373;28;20552;-66
2021/06/03 07:14:09;;;;;;;2.75;1.35;;;29.40;24.70;;;;;;5028154;28;20418;-66
2021/06/03 07:16:35;;;;;;;3.03;1.02;;;29.90;25.50;;;;;;5028656;28;20450;-66
2021/06/03 07:19:03;;;;;;;7.25;1.33;;;29.40;24.40;;;;;;5028319;28;20041;-65
2021/06/03 07:21:28;;;;;;;6.78;1.65;;;29.40;24.80;;;;;;5028376;28;20026;-66
2021/06/03 07:23:54;;;;;;;6.13;1.52;;;29.50;24.10;;;;;;5028554;28;20036;-66
2021/06/03 07:26:20;;;;;;;2.00;1.20;;;30.00;23.80;;;;;;5028127;28;20565;-65
2021/06/03 07:28:47;;;;;;;5.40;1.20;;;30.30;24.50;;;;;;5024690;28;20631;-64
2021/06/03 07:31:12;;;;;;;2.40;1.30;;;30.00;24.10;;;;;;5026328;28;20094;-65
2021/06/03 07:33:38;;;;;;;2.80;1.13;;;30.10;25.00;;;;;;5027277;28;20053;-66
2021/06/03 07:36:04;;;;;;;5.95;1.40;;;30.10;24.40;;;;;;5027185;28;20120;-64
2021/06/03 07:38:30;;;;;;;9.15;0.95;;;29.90;25.00;;;;;;5026683;28;20050;-66
2021/06/03 07:40:55;;;;;;;5.18;1.83;;;30.00;25.80;;;;;;5025656;28;20437;-66
2021/06/03 07:43:21;;;;;;;3.35;1.33;;;30.80;24.40;;;;;;5026044;28;20041;-66
2021/06/03 07:45:47;;;;;;;4.53;1.17;;;30.60;25.10;;;;;;5022113;28;20033;-67
2021/06/03 07:48:13;;;;;;;1.95;1.13;;;30.90;22.80;;;;;;5026764;28;20060;-66
2021/06/03 07:50:41;;;;;;;3.35;1.00;;;30.90;23.30;;;;;;5025980;28;20624;-68
2021/06/03 07:53:08;;;;;;;7.72;1.13;;;30.50;23.20;;;;;;5026917;28;20091;-65
2021/06/03 07:55:35;;;;;;;3.95;1.27;;;29.90;23.90;;;;;;5024396;28;20045;-64
2021/06/03 07:58:03;;;;;;;5.47;1.45;;;29.40;23.80;;;;;;5023747;28;20041;-65
2021/06/03 08:00:30;;;;;;;3.97;1.38;;;28.80;24.30;;;;;;5025702;28;20029;-66
2021/06/03 08:02:57;;;;;;;8.23;1.27;;;28.70;25.00;;;;;;5026470;28;20049;-65
2021/06/03 08:05:24;;;;;;;3.65;1.25;;;28.90;24.20;;;;;;5025762;28;20029;-65
2021/06/03 08:07:51;;;;;;;3.22;1.15;;;29.00;25.10;;;;;;5026335;28;20037;-65
2021/06/03 08:10:24;;;;;;;5.45;1.15;;;29.30;24.40;;;;;;5024695;28;20095;-66
2021/06/03 08:12:50;;;;;;;6.50;1.42;;;28.90;25.30;;;;;;5026377;28;20141;-66
2021/06/03 08:15:17;;;;;;;7.63;1.67;;;29.70;23.60;;;;;;5023142;28;20037;-66
2021/06/03 08:17:42;;;;;;;4.75;1.48;;;29.70;24.80;;;;;;5023978;28;20045;-66
2021/06/03 08:20:12;;;;;;;4.22;1.33;;;30.20;24.40;;;;;;5024206;28;20537;-65
2021/06/03 08:22:38;;;;;;;4.05;1.27;;;30.10;24.00;;;;;;5025684;28;20029;-67
2021/06/03 08:25:05;;;;;;;1.90;0.85;;;29.90;24.00;;;;;;5025980;28;20096;-67
2021/06/03 08:27:31;;;;;;;5.50;1.02;;;29.80;25.20;;;;;;5026016;28;20095;-65
2021/06/03 08:29:56;;;;;;;8.65;1.05;;;29.70;25.40;;;;;;5023379;28;20123;-66
2021/06/03 08:32:22;;;;;;;2.00;1.00;;;29.90;23.90;;;;;;5008535;28;507088;-66
2021/06/03 08:34:48;;;;;;;3.28;1.30;;;29.80;24.50;;;;;;5025933;28;20111;-66
2021/06/03 08:37:14;;;;;;;4.82;1.13;;;29.70;24.20;;;;;;5026666;28;20052;-66
2021/06/03 08:39:39;;;;;;;7.53;1.65;;;30.20;24.60;;;;;;5025915;28;20041;-66
2021/06/03 08:42:06;;;;;;;5.90;1.05;;;30.60;24.90;;;;;;5027138;28;20041;-65
2021/06/03 08:44:32;;;;;;;2.67;1.17;;;30.80;23.70;;;;;;5026466;28;20111;-65
2021/06/03 08:46:58;;;;;;;3.83;1.10;;;30.40;24.40;;;;;;5027053;28;20593;-65
2021/06/03 08:49:24;;;;;;;3.05;1.35;;;30.40;24.70;;;;;;5027234;28;20087;-67
2021/06/03 08:51:52;;;;;;;4.85;1.05;;;30.20;24.80;;;;;;5026465;28;20041;-66
2021/06/03 08:54:18;;;;;;;11.27;1.52;;;30.70;24.90;;;;;;5026894;28;20056;-65
2021/06/03 08:56:44;;;;;;;2.65;1.50;;;30.50;24.70;;;;;;5026350;28;20407;-66
2021/06/03 08:59:09;;;;;;;5.03;1.92;;;30.90;25.20;;;;;;5024848;28;20034;-66
2021/06/03 09:01:35;;;;;;;4.05;1.30;;;30.90;24.60;;;;;;5025023;28;20043;-65
2021/06/03 09:04:01;;;;;;;4.70;1.20;;;30.50;25.50;;;;;;5026409;28;20029;-66
2021/06/03 09:06:27;;;;;;;6.90;1.50;;;30.90;25.00;;;;;;5026475;28;20406;-66
2021/06/03 09:08:59;;;;;;;3.33;1.10;;;30.90;24.40;;;;;;5025265;28;20506;-65
2021/06/03 09:11:30;;;;;;;2.00;1.05;;;30.90;24.50;;;;;;5026668;28;20038;-65
2021/06/03 09:14:04;;;;;;;3.80;1.20;;;31.30;24.30;;;;;;5023932;28;20419;-65
2021/06/03 09:16:32;;;;;;;5.95;1.02;;;31.30;23.10;;;;;;5025286;28;20037;-65
2021/06/03 09:19:12;;;;;;;2.65;1.30;;;31.40;24.30;;;;;;5025753;28;20052;-66
2021/06/03 09:21:52;;;;;;;3.20;1.15;;;31.70;23.10;;;;;;5025957;28;20041;-64
2021/06/03 09:24:20;;;;;;;2.30;0.93;;;31.40;22.40;;;;;;5026017;28;20391;-66
2021/06/03 09:26:46;;;;;;;4.20;1.17;;;31.20;23.70;;;;;;5025369;28;20061;-66
2021/06/03 09:29:33;;;;;;;5.82;1.08;;;31.40;24.00;;;;;;5025627;28;20087;-66
2021/06/03 09:32:10;;;;;;;3.85;1.20;;;31.80;23.30;;;;;;5026285;28;20051;-66
2021/06/03 09:34:39;;;;;;;5.25;1.35;;;31.90;22.60;;;;;;5021777;28;20422;-66
2021/06/03 09:37:07;;;;;;;3.08;1.00;;;32.00;22.60;;;;;;5021733;28;20109;-66
2021/06/03 09:39:41;;;;;;;3.20;1.00;;;31.90;23.30;;;;;;5025680;28;20091;-65
2021/06/03 09:42:16;;;;;;;8.70;1.23;;;31.80;24.00;;;;;;5025197;28;20038;-66
2021/06/03 09:44:45;;;;;;;14.35;1.33;;;31.90;23.70;;;;;;5024525;28;20029;-65
2021/06/03 09:47:14;;;;;;;5.00;1.42;;;31.70;24.20;;;;;;5025802;28;20591;-64
2021/06/03 09:49:46;;;;;;;1.83;0.90;;;31.60;23.40;;;;;;5025891;28;20087;-66
2021/06/03 09:52:15;;;;;;;2.53;0.93;;;31.60;23.40;;;;;;5024579;28;20091;-65
2021/06/03 09:54:46;;;;;;;2.92;1.10;;;31.20;22.60;;;;;;5025494;28;20035;-65
2021/06/03 09:57:13;;;;;;;4.07;1.10;;;30.80;23.10;;;;;;5025360;28;20037;-65
2021/06/03 09:59:44;;;;;;;9.95;1.00;;;30.40;24.10;;;;;;5023333;28;20042;-68
2021/06/03 10:02:13;;;;;;;4.72;1.40;;;29.70;23.80;;;;;;5019021;28;20052;-68
2021/06/03 10:04:48;;;;;;;4.88;1.20;;;29.10;23.80;;;;;;5025349;28;20588;-68
2021/06/03 10:07:25;;;;;;;4.63;0.98;;;28.30;24.80;;;;;;5025233;28;20038;-66
2021/06/03 10:10:17;;;;;;;6.97;1.35;;;27.80;26.10;;;;;;5023631;28;20037;-67
2021/06/03 10:12:44;;;;;;;4.38;1.00;;;27.60;26.70;;;;;;5020964;28;20049;-67
2021/06/03 10:15:31;;;;;;;2.72;1.27;;;27.60;27.60;;;;;;5023957;28;20041;-65
2021/06/03 10:18:00;;;;;;;10.25;1.20;;;27.70;28.20;;;;;;5022703;28;20041;-65
2021/06/03 10:20:33;;;;;;;6.38;1.58;;;27.70;27.10;;;;;;5023576;28;20026;-65
2021/06/03 10:22:59;;;;;;;6.00;1.00;;;27.50;27.70;;;;;;5024866;28;20025;-65
2021/06/03 10:25:27;;;;;;;3.63;1.15;;;27.30;26.90;;;;;;5022293;28;20045;-65
2021/06/03 10:28:08;;;;;;;9.00;1.10;;;27.20;28.00;;;;;;5022652;28;20033;-66
2021/06/03 10:30:37;;;;;;;3.53;1.15;;;27.40;28.20;;;;;;5023950;28;20540;-65
2021/06/03 10:33:12;;;;;;;2.22;1.00;;;27.40;28.70;;;;;;5024820;28;20061;-65
2021/06/03 10:35:42;;;;;;;2.05;0.93;;;27.40;28.50;;;;;;5025405;28;20502;-66
2021/06/03 10:38:10;;;;;;;3.05;1.60;;;27.20;27.60;;;;;;5024076;28;20731;-65
2021/06/03 10:40:41;;;;;;;3.30;1.30;;;26.70;28.00;;;;;;5023458;28;20029;-65
2021/06/03 10:43:08;;;;;;;3.22;1.10;;;26.80;28.80;;;;;;5018651;28;20033;-66
2021/06/03 10:45:37;;;;;;;2.08;1.05;;;26.50;28.20;;;;;;5023991;28;20065;-66
2021/06/03 10:48:03;;;;;;;2.50;0.90;;;26.20;28.50;;;;;;5023111;28;20033;-66
2021/06/03 10:50:32;;;;;;;2.47;1.13;;;26.40;30.20;;;;;;5025484;28;20501;-66
2021/06/03 10:53:05;;;;;;;2.55;0.98;;;26.60;30.10;;;;;;5020086;28;20060;-65
2021/06/03 10:55:38;;;;;;;8.27;1.38;;;26.50;29.40;;;;;;5025035;28;20502;-66
2021/06/03 10:58:06;;;;;;;4.38;1.30;;;26.70;29.70;;;;;;5024219;28;20048;-66
2021/06/03 11:00:37;;;;;;;5.63;0.98;;;26.80;29.30;;;;;;5023657;28;20410;-66
2021/06/03 11:03:22;;;;;;;4.55;1.27;;;26.90;27.70;;;;;;5024753;28;20038;-67
2021/06/03 11:05:58;;;;;;;5.07;1.08;;;26.70;28.80;;;;;;5025006;28;20037;-65
2021/06/03 11:08:27;;;;;;;5.28;1.27;;;26.70;29.00;;;;;;5022382;28;20121;-65
2021/06/03 11:11:09;;;;;;;7.75;1.95;;;26.30;28.80;;;;;;5018256;28;20525;-66
2021/06/03 11:13:55;;;;;;;2.90;0.88;;;26.10;29.40;;;;;;5023605;28;20140;-65
2021/06/03 11:16:36;;;;;;;2.85;1.08;;;26.20;30.00;;;;;;5024727;28;20045;-65
2021/06/03 11:19:01;;;;;;;5.97;1.10;;;26.20;29.90;;;;;;5023868;28;20618;-66
2021/06/03 11:21:33;;;;;;;3.67;1.33;;;26.20;30.20;;;;;;5025210;28;20048;-66
2021/06/03 11:24:04;;;;;;;3.75;1.15;;;26.00;28.80;;;;;;5028781;28;20072;-66
2021/06/03 11:29:27;;;;;;;5.18;1.52;;;25.70;29.00;;;;;;5023328;28;20065;-66
2021/06/03 11:32:05;;;;;;;2.35;1.10;;;25.60;30.40;;;;;;5028348;28;20048;-65
2021/06/03 11:34:40;;;;;;;6.35;1.98;;;25.80;30.80;;;;;;5024242;28;20065;-66
2021/06/03 11:37:12;;;;;;;3.35;1.25;;;26.10;30.10;;;;;;5028168;28;20486;-66
2021/06/03 11:39:46;;;;;;;7.38;1.52;;;26.10;28.90;;;;;;5022710;28;20112;-66
2021/06/03 11:42:22;;;;;;;4.10;1.10;;;25.90;29.10;;;;;;5027515;28;20032;-66
2021/06/03 11:45:20;;;;;;;7.18;1.13;;;25.90;29.50;;;;;;5023868;28;20117;-66
2021/06/03 11:47:45;;;;;;;3.92;1.50;;;25.90;30.50;;;;;;5027217;28;20585;-66
2021/06/03 11:50:17;;;;;;;2.53;1.20;;;25.70;29.30;;;;;;5026312;28;20136;-65
2021/06/03 11:53:02;;;;;;;3.55;1.48;;;25.50;29.50;;;;;;5026297;28;20080;-65
2021/06/03 11:55:43;;;;;;;5.40;1.10;;;25.60;30.10;;;;;;5027714;28;20048;-66
2021/06/03 11:58:29;;;;;;;1.70;0.80;;;25.80;29.40;;;;;;5027843;28;20083;-66
2021/06/03 12:01:03;;;;;;;3.75;1.35;;;26.10;30.10;;;;;;5027503;28;20045;-66
2021/06/03 12:03:43;;;;;;;3.15;1.10;;;26.60;28.10;;;;;;5025421;28;20482;-65
2021/06/03 12:06:13;;;;;;;2.70;1.25;;;26.80;29.20;;;;;;5027861;28;20402;-65
2021/06/03 12:08:43;;;;;;;2.50;0.80;;;26.90;28.70;;;;;;5026309;28;20038;-65
2021/06/03 12:11:15;;;;;;;2.67;1.00;;;26.80;28.00;;;;;;5025740;28;20073;-66
2021/06/03 12:13:42;;;;;;;4.28;1.17;;;26.40;28.40;;;;;;5027049;28;20085;-65
2021/06/03 12:16:08;;;;;;;10.75;1.40;;;25.80;28.90;;;;;;5025944;28;20437;-65
2021/06/03 12:18:41;;;;;;;2.47;0.95;;;25.40;29.60;;;;;;5027398;28;20042;-65
2021/06/03 12:21:11;;;;;;;1.83;0.90;;;25.00;30.00;;;;;;5027042;28;20022;-66
2021/06/03 12:23:51;;;;;;;3.42;1.05;;;25.00;30.90;;;;;;5026699;28;20111;-64
2021/06/03 12:26:20;;;;;;;7.22;1.20;;;25.30;30.20;;;;;;5026533;28;20033;-66
2021/06/03 12:28:46;;;;;;;3.00;1.27;;;25.30;29.90;;;;;;5025051;28;20038;-65
2021/06/03 12:31:38;;;;;;;3.10;1.02;;;25.50;30.50;;;;;;5027274;28;20064;-65
2021/06/03 12:34:04;;;;;;;3.08;1.20;;;25.70;30.60;;;;;;5025577;28;20052;-66
2021/06/03 12:36:31;;;;;;;3.83;0.98;;;26.00;30.20;;;;;;5026767;28;21003;-65
2021/06/03 12:39:01;;;;;;;3.80;1.10;;;26.20;29.80;;;;;;5026602;28;20049;-65
2021/06/03 12:41:40;;;;;;;3.65;1.10;;;26.40;29.60;;;;;;5026725;28;20449;-64
2021/06/03 12:44:19;;;;;;;7.28;1.80;;;26.00;29.70;;;;;;5026747;28;20076;-65
2021/06/03 12:46:54;;;;;;;10.40;1.10;;;26.00;30.50;;;;;;5025292;28;20032;-66
2021/06/03 12:49:26;;;;;;;2.35;0.90;;;25.90;29.80;;;;;;5022285;28;20098;-65
2021/06/03 12:51:57;;;;;;;3.00;1.20;;;25.70;30.30;;;;;;5025822;28;20050;-65
2021/06/03 12:54:44;;;;;;;11.57;1.30;;;25.50;30.70;;;;;;5026522;28;20414;-65
2021/06/03 12:57:15;;;;;;;1.70;0.90;;;25.50;31.40;;;;;;5026338;28;20436;-65
2021/06/03 12:59:43;;;;;;;4.72;1.20;;;25.50;31.00;;;;;;5026710;28;20481;-65
2021/06/03 13:02:11;;;;;;;4.60;1.05;;;25.50;32.20;;;;;;5026781;28;20037;-65
2021/06/03 13:04:39;;;;;;;7.30;1.70;;;25.40;30.80;;;;;;5026474;28;20410;-65
2021/06/03 13:07:07;;;;;;;3.30;1.13;;;25.40;31.90;;;;;;5026767;28;20052;-66
2021/06/03 13:09:34;;;;;;;4.82;1.05;;;25.50;31.20;;;;;;5026408;28;20033;-65